MSC Rhiannon — D5IY4 — position and weather

sailwx.info

Track history (hours):
 
Tides and Currents Weather Stations Pressure Air Temp Water Temp Dewpoint Dewpoint Depression Visibility Wind Speed Wind Dir Waves Ship Positions

MSC Rhiannon

Last reported at 2017-Nov-17 21:43 UTC. Time now 2017-Nov-21 02:53 UTC.
Position N 32°38' E 032°06'.

Length 188 m; draft 10 m.

Type: Ship (hazmat cat A). MMSI: 636017023.

Date/timePositionNaut miles runAvg speedWind from/ knotsBaromVisibWave heightAir tempDewpointWater temp
2017-Nov-17 21:43N 32°38' E 032°06'313.1
2017-Nov-17 21:30N 32°39' E 032°09'2113.6
2017-Nov-17 19:56N 32°45' E 032°33'613.6
2017-Nov-17 19:30N 32°48' E 032°39'713.7
2017-Nov-17 19:00N 32°51' E 032°46'713.9
2017-Nov-17 18:31N 32°54' E 032°53'714.1
2017-Nov-17 18:00N 32°58' E 033°01'713.7
2017-Nov-17 17:31N 33°01' E 033°08'713.9
2017-Nov-17 17:00N 33°05' E 033°15'714.1
2017-Nov-17 16:30N 33°08' E 033°22'714.3
2017-Nov-17 16:00N 33°12' E 033°30'714.2
2017-Nov-17 15:30N 33°15' E 033°37'713.7
2017-Nov-17 15:00N 33°18' E 033°44'713.7
2017-Nov-17 14:29N 33°22' E 033°52'913.7
2017-Nov-17 13:51N 33°27' E 034°01'513.6
2017-Nov-17 13:30N 33°29' E 034°05'713.8
2017-Nov-17 13:00N 33°32' E 034°13'714.6
2017-Nov-17 12:30N 33°36' E 034°20'714.4
2017-Nov-17 12:00N 33°40' E 034°28'714.0
2017-Nov-17 11:30N 33°43' E 034°35'713.5
2017-Nov-17 11:00N 33°47' E 034°42'713.6
2017-Nov-17 10:30N 33°50' E 034°49'100 2.9
2017-Nov-15 23:33N 34°39' E 033°03'0 8.9
2017-Nov-15 23:31N 34°39' E 033°03'2 3.7
2017-Nov-15 23:00N 34°39' E 033°01'0 0.0
2017-Nov-15 22:28N 34°39' E 033°01'0 0.0
2017-Nov-15 21:58N 34°39' E 033°01'0 0.0
2017-Nov-15 21:28N 34°39' E 033°01'0 0.0
2017-Nov-15 20:58N 34°39' E 033°01'0 0.0
2017-Nov-15 20:28N 34°39' E 033°01'0 0.0
2017-Nov-15 19:58N 34°39' E 033°01'0 0.0
2017-Nov-15 19:28N 34°39' E 033°01'0 0.0
2017-Nov-15 18:58N 34°39' E 033°01'0 0.0
2017-Nov-15 18:28N 34°39' E 033°01'0 0.0
2017-Nov-15 17:58N 34°39' E 033°01'0 0.0
2017-Nov-15 17:28N 34°39' E 033°01'0 0.0
2017-Nov-15 16:58N 34°39' E 033°01'0 0.0
2017-Nov-15 16:28N 34°39' E 033°01'0 0.0
2017-Nov-15 15:58N 34°39' E 033°01'0 0.0
2017-Nov-15 15:28N 34°39' E 033°01'0 0.0
2017-Nov-15 14:58N 34°39' E 033°01'0 0.0
2017-Nov-15 14:28N 34°39' E 033°01'0 0.0
2017-Nov-15 13:58N 34°39' E 033°01'0 0.0
2017-Nov-15 13:28N 34°39' E 033°01'0 0.0
2017-Nov-15 12:58N 34°39' E 033°01'0 0.0
2017-Nov-15 12:28N 34°39' E 033°01'0 0.0
2017-Nov-15 11:58N 34°39' E 033°01'0 0.0
2017-Nov-15 11:28N 34°39' E 033°01'0 0.0
2017-Nov-15 10:58N 34°39' E 033°01'0 0.0
2017-Nov-15 10:28N 34°39' E 033°01'0 0.0
2017-Nov-15 09:58N 34°39' E 033°01'0 0.0
2017-Nov-15 09:28N 34°39' E 033°01'0 0.0
2017-Nov-15 08:58N 34°39' E 033°01'0 0.0
2017-Nov-15 08:28N 34°39' E 033°01'0 0.0
2017-Nov-15 07:58N 34°39' E 033°01'0 0.0
2017-Nov-15 07:28N 34°39' E 033°01'0 0.0
2017-Nov-15 06:58N 34°39' E 033°01'0 0.0
2017-Nov-15 06:28N 34°39' E 033°01'0 0.0
2017-Nov-15 05:58N 34°39' E 033°01'0 0.0
2017-Nov-15 05:28N 34°39' E 033°01'0 0.0
2017-Nov-15 04:58N 34°39' E 033°01'0 0.0
2017-Nov-15 04:30N 34°39' E 033°01'1 2.3
2017-Nov-15 04:00N 34°39' E 033°02'3 5.4
2017-Nov-15 03:29N 34°39' E 033°05'1 1.9
2017-Nov-15 03:00N 34°38' E 033°06'50110.2
2017-Nov-13 02:00N 37°57' E 023°36'0 0.0
2017-Nov-13 01:30N 37°57' E 023°36'0 0.0
2017-Nov-13 01:00N 37°57' E 023°36'0 0.0
2017-Nov-13 00:30N 37°57' E 023°36'0 0.0
2017-Nov-13 00:00N 37°57' E 023°36'0 0.0
2017-Nov-12 23:30N 37°57' E 023°36'0 0.0
2017-Nov-12 23:00N 37°57' E 023°36'0 0.0
2017-Nov-12 22:30N 37°57' E 023°36'0 0.0
2017-Nov-12 22:00N 37°57' E 023°36'0 0.0
2017-Nov-12 21:30N 37°57' E 023°36'0 0.0
2017-Nov-12 21:00N 37°57' E 023°36'0 0.0
2017-Nov-12 20:30N 37°57' E 023°36'0 0.0
2017-Nov-12 20:00N 37°57' E 023°36'0 0.0
2017-Nov-12 19:30N 37°57' E 023°36'0 0.0
2017-Nov-12 19:00N 37°57' E 023°36'0 0.0
2017-Nov-12 18:30N 37°57' E 023°36'0 0.0
2017-Nov-12 18:00N 37°57' E 023°36'0 0.0
2017-Nov-12 17:30N 37°57' E 023°36'0 0.0
2017-Nov-12 17:00N 37°57' E 023°36'0 0.0
2017-Nov-12 16:30N 37°57' E 023°36'0 0.0
2017-Nov-12 16:00N 37°57' E 023°36'0 0.0
2017-Nov-12 15:30N 37°57' E 023°36'0 0.0
2017-Nov-12 15:00N 37°57' E 023°36'0 0.0
2017-Nov-12 14:30N 37°57' E 023°36'0 0.0
2017-Nov-12 14:00N 37°57' E 023°36'0 0.0
2017-Nov-12 13:30N 37°57' E 023°36'0 0.0
2017-Nov-12 13:00N 37°57' E 023°36'0 0.2
2017-Nov-12 12:30N 37°57' E 023°36'2 4.0
2017-Nov-12 12:00N 37°55' E 023°36'0 0.9
2017-Nov-12 11:30N 37°55' E 023°36'4 7.8
2017-Nov-12 11:00N 37°51' E 023°38'611.7
2017-Nov-12 10:30N 37°46' E 023°42'612.8
2017-Nov-12 10:00N 37°41' E 023°45'4 8.2
2017-Nov-12 09:30N 37°37' E 023°48'4 8.4
2017-Nov-12 09:00N 37°33' E 023°49'4 8.5
2017-Nov-12 08:30N 37°29' E 023°49'5 8.9
2017-Nov-12 07:59N 37°24' E 023°49'510.4
2017-Nov-12 07:29N 37°19' E 023°49'810.3
2017-Nov-12 06:44N 37°11' E 023°49'210.2
2017-Nov-12 06:30N 37°09' E 023°48'34311.0
2017-Nov-10 23:17N 40°49' E 018°10'29816.1
2017-Nov-10 04:44N 44°12' E 013°13'415.8
2017-Nov-10 04:29N 44°16' E 013°11'715.7
2017-Nov-10 04:00N 44°21' E 013°05'815.8
2017-Nov-10 03:30N 44°24' E 012°54'816.1
2017-Nov-10 03:00N 44°26' E 012°43'815.8
2017-Nov-10 02:30N 44°28' E 012°32'713.2
2017-Nov-10 01:56N 44°30' E 012°22'3 8.0
2017-Nov-10 01:30N 44°30' E 012°18'6 0.3
2017-Nov-09 05:20N 44°30' E 012°27'613.6
2017-Nov-09 04:54N 44°28' E 012°35'614.6
2017-Nov-09 04:30N 44°31' E 012°41'918.0
2017-Nov-09 04:00N 44°40' E 012°46'918.1
2017-Nov-09 03:30N 44°48' E 012°51'917.9
2017-Nov-09 03:00N 44°56' E 012°57'917.5
2017-Nov-09 02:30N 45°04' E 013°01'917.4
2017-Nov-09 02:00N 45°13' E 013°01'917.5
2017-Nov-09 01:30N 45°22' E 013°01'917.5
2017-Nov-09 01:00N 45°29' E 013°07'917.6
2017-Nov-09 00:30N 45°34' E 013°18'917.4
2017-Nov-09 00:00N 45°37' E 013°30'815.9
2017-Nov-08 23:30N 45°39' E 013°40'4 8.0
2017-Nov-08 23:00N 45°38' E 013°46'0 0.0
2017-Nov-08 22:26N 45°38' E 013°46'0 0.0
2017-Nov-08 21:59N 45°38' E 013°46'0 0.0
2017-Nov-08 21:26N 45°38' E 013°46'0 0.0
2017-Nov-08 20:56N 45°38' E 013°46'0 0.0
2017-Nov-08 20:29N 45°38' E 013°46'0 0.0
2017-Nov-08 19:59N 45°38' E 013°46'0 0.0
2017-Nov-08 19:26N 45°38' E 013°46'0 0.0
2017-Nov-08 18:59N 45°38' E 013°46'0 0.0
2017-Nov-08 18:29N 45°38' E 013°46'0 0.0
2017-Nov-08 17:56N 45°38' E 013°46'0 0.0
2017-Nov-08 17:29N 45°38' E 013°46'0 0.0
2017-Nov-08 16:53N 45°38' E 013°46'0 0.0
2017-Nov-08 16:29N 45°38' E 013°46'0 0.0
2017-Nov-08 15:59N 45°38' E 013°46'0 0.0
2017-Nov-08 15:26N 45°38' E 013°46'0 0.0
2017-Nov-08 14:59N 45°38' E 013°46'0 0.0
2017-Nov-08 14:29N 45°38' E 013°46'0 0.0
2017-Nov-08 13:56N 45°38' E 013°46'0 0.0
2017-Nov-08 13:26N 45°38' E 013°46'0 0.5
2017-Nov-08 13:00N 45°38' E 013°45'3 5.8
2017-Nov-08 12:30N 45°39' E 013°42'1 0.7
2017-Nov-08 11:45N 45°40' E 013°42'0 0.1
2017-Nov-08 11:30N 45°40' E 013°42'0 0.1
2017-Nov-08 11:00N 45°40' E 013°42'0 0.1
2017-Nov-08 10:18N 45°40' E 013°42'0 0.1
2017-Nov-08 10:00N 45°40' E 013°42'0 0.1
2017-Nov-08 09:30N 45°40' E 013°42'0 0.0
2017-Nov-08 08:54N 45°40' E 013°42'0 0.1
2017-Nov-08 07:57N 45°40' E 013°42'0 0.0
2017-Nov-08 07:30N 45°40' E 013°42'0 0.1
2017-Nov-08 06:48N 45°40' E 013°42'0 0.3
2017-Nov-08 06:30N 45°40' E 013°42'2 4.5
2017-Nov-08 06:00N 45°39' E 013°39'4 8.2
2017-Nov-08 05:30N 45°36' E 013°35'5 9.3
2017-Nov-08 05:00N 45°34' E 013°29'510.3
2017-Nov-08 04:30N 45°31' E 013°23'611.9
2017-Nov-08 04:00N 45°28' E 013°16'612.4
2017-Nov-08 03:30N 45°26' E 013°07'5 9.4
2017-Nov-08 03:00N 45°24' E 013°01'5 9.3
2017-Nov-08 02:30N 45°22' E 012°55'5 9.2
2017-Nov-08 02:00N 45°20' E 012°49'5 9.1
2017-Nov-08 01:30N 45°18' E 012°43'5 9.3
2017-Nov-08 01:00N 45°16' E 012°38'5 9.1
2017-Nov-08 00:30N 45°14' E 012°32'5 9.6
2017-Nov-08 00:00N 45°17' E 012°26'510.1
2017-Nov-07 23:30N 45°20' E 012°20'4 7.7
2017-Nov-07 23:01N 45°22' E 012°15'4 7.9
2017-Nov-07 22:30N 45°26' E 012°16'2 3.0
2017-Nov-07 22:00N 45°27' E 012°15'  
Track history (hours):
 
Tides and Currents Weather Stations Pressure Air Temp Water Temp Dewpoint Dewpoint Depression Visibility Wind Speed Wind Dir Waves Ship Positions

MSC Rhiannon

Last reported at 2017-Nov-17 21:43 UTC. Time now 2017-Nov-21 02:53 UTC.
Position N 32°38' E 032°06'.

Length 188 m; draft 10 m.

Type: Ship (hazmat cat A). MMSI: 636017023.

Date/timePositionNaut miles runAvg speedWind from/ knotsBaromVisibWave heightAir tempDewpointWater temp
2017-Nov-17 21:43N 32°38' E 032°06'313.1
2017-Nov-17 21:30N 32°39' E 032°09'2113.6
2017-Nov-17 19:56N 32°45' E 032°33'613.6
2017-Nov-17 19:30N 32°48' E 032°39'713.7
2017-Nov-17 19:00N 32°51' E 032°46'713.9
2017-Nov-17 18:31N 32°54' E 032°53'714.1
2017-Nov-17 18:00N 32°58' E 033°01'713.7
2017-Nov-17 17:31N 33°01' E 033°08'713.9
2017-Nov-17 17:00N 33°05' E 033°15'714.1
2017-Nov-17 16:30N 33°08' E 033°22'714.3
2017-Nov-17 16:00N 33°12' E 033°30'714.2
2017-Nov-17 15:30N 33°15' E 033°37'713.7
2017-Nov-17 15:00N 33°18' E 033°44'713.7
2017-Nov-17 14:29N 33°22' E 033°52'913.7
2017-Nov-17 13:51N 33°27' E 034°01'513.6
2017-Nov-17 13:30N 33°29' E 034°05'713.8
2017-Nov-17 13:00N 33°32' E 034°13'714.6
2017-Nov-17 12:30N 33°36' E 034°20'714.4
2017-Nov-17 12:00N 33°40' E 034°28'714.0
2017-Nov-17 11:30N 33°43' E 034°35'713.5
2017-Nov-17 11:00N 33°47' E 034°42'713.6
2017-Nov-17 10:30N 33°50' E 034°49'100 2.9
2017-Nov-15 23:33N 34°39' E 033°03'0 8.9
2017-Nov-15 23:31N 34°39' E 033°03'2 3.7
2017-Nov-15 23:00N 34°39' E 033°01'0 0.0
2017-Nov-15 22:28N 34°39' E 033°01'0 0.0
2017-Nov-15 21:58N 34°39' E 033°01'0 0.0
2017-Nov-15 21:28N 34°39' E 033°01'0 0.0
2017-Nov-15 20:58N 34°39' E 033°01'0 0.0
2017-Nov-15 20:28N 34°39' E 033°01'0 0.0
2017-Nov-15 19:58N 34°39' E 033°01'0 0.0
2017-Nov-15 19:28N 34°39' E 033°01'0 0.0
2017-Nov-15 18:58N 34°39' E 033°01'0 0.0
2017-Nov-15 18:28N 34°39' E 033°01'0 0.0
2017-Nov-15 17:58N 34°39' E 033°01'0 0.0
2017-Nov-15 17:28N 34°39' E 033°01'0 0.0
2017-Nov-15 16:58N 34°39' E 033°01'0 0.0
2017-Nov-15 16:28N 34°39' E 033°01'0 0.0
2017-Nov-15 15:58N 34°39' E 033°01'0 0.0
2017-Nov-15 15:28N 34°39' E 033°01'0 0.0
2017-Nov-15 14:58N 34°39' E 033°01'0 0.0
2017-Nov-15 14:28N 34°39' E 033°01'0 0.0
2017-Nov-15 13:58N 34°39' E 033°01'0 0.0
2017-Nov-15 13:28N 34°39' E 033°01'0 0.0
2017-Nov-15 12:58N 34°39' E 033°01'0 0.0
2017-Nov-15 12:28N 34°39' E 033°01'0 0.0
2017-Nov-15 11:58N 34°39' E 033°01'0 0.0
2017-Nov-15 11:28N 34°39' E 033°01'0 0.0
2017-Nov-15 10:58N 34°39' E 033°01'0 0.0
2017-Nov-15 10:28N 34°39' E 033°01'0 0.0
2017-Nov-15 09:58N 34°39' E 033°01'0 0.0
2017-Nov-15 09:28N 34°39' E 033°01'0 0.0
2017-Nov-15 08:58N 34°39' E 033°01'0 0.0
2017-Nov-15 08:28N 34°39' E 033°01'0 0.0
2017-Nov-15 07:58N 34°39' E 033°01'0 0.0
2017-Nov-15 07:28N 34°39' E 033°01'0 0.0
2017-Nov-15 06:58N 34°39' E 033°01'0 0.0
2017-Nov-15 06:28N 34°39' E 033°01'0 0.0
2017-Nov-15 05:58N 34°39' E 033°01'0 0.0
2017-Nov-15 05:28N 34°39' E 033°01'0 0.0
2017-Nov-15 04:58N 34°39' E 033°01'0 0.0
2017-Nov-15 04:30N 34°39' E 033°01'1 2.3
2017-Nov-15 04:00N 34°39' E 033°02'3 5.4
2017-Nov-15 03:29N 34°39' E 033°05'1 1.9
2017-Nov-15 03:00N 34°38' E 033°06'50110.2
2017-Nov-13 02:00N 37°57' E 023°36'0 0.0
2017-Nov-13 01:30N 37°57' E 023°36'0 0.0
2017-Nov-13 01:00N 37°57' E 023°36'0 0.0
2017-Nov-13 00:30N 37°57' E 023°36'0 0.0
2017-Nov-13 00:00N 37°57' E 023°36'0 0.0
2017-Nov-12 23:30N 37°57' E 023°36'0 0.0
2017-Nov-12 23:00N 37°57' E 023°36'0 0.0
2017-Nov-12 22:30N 37°57' E 023°36'0 0.0
2017-Nov-12 22:00N 37°57' E 023°36'0 0.0
2017-Nov-12 21:30N 37°57' E 023°36'0 0.0
2017-Nov-12 21:00N 37°57' E 023°36'0 0.0
2017-Nov-12 20:30N 37°57' E 023°36'0 0.0
2017-Nov-12 20:00N 37°57' E 023°36'0 0.0
2017-Nov-12 19:30N 37°57' E 023°36'0 0.0
2017-Nov-12 19:00N 37°57' E 023°36'0 0.0
2017-Nov-12 18:30N 37°57' E 023°36'0 0.0
2017-Nov-12 18:00N 37°57' E 023°36'0 0.0
2017-Nov-12 17:30N 37°57' E 023°36'0 0.0
2017-Nov-12 17:00N 37°57' E 023°36'0 0.0
2017-Nov-12 16:30N 37°57' E 023°36'0 0.0
2017-Nov-12 16:00N 37°57' E 023°36'0 0.0
2017-Nov-12 15:30N 37°57' E 023°36'0 0.0
2017-Nov-12 15:00N 37°57' E 023°36'0 0.0
2017-Nov-12 14:30N 37°57' E 023°36'0 0.0
2017-Nov-12 14:00N 37°57' E 023°36'0 0.0
2017-Nov-12 13:30N 37°57' E 023°36'0 0.0
2017-Nov-12 13:00N 37°57' E 023°36'0 0.2
2017-Nov-12 12:30N 37°57' E 023°36'2 4.0
2017-Nov-12 12:00N 37°55' E 023°36'0 0.9
2017-Nov-12 11:30N 37°55' E 023°36'4 7.8
2017-Nov-12 11:00N 37°51' E 023°38'611.7
2017-Nov-12 10:30N 37°46' E 023°42'612.8
2017-Nov-12 10:00N 37°41' E 023°45'4 8.2
2017-Nov-12 09:30N 37°37' E 023°48'4 8.4
2017-Nov-12 09:00N 37°33' E 023°49'4 8.5
2017-Nov-12 08:30N 37°29' E 023°49'5 8.9
2017-Nov-12 07:59N 37°24' E 023°49'510.4
2017-Nov-12 07:29N 37°19' E 023°49'810.3
2017-Nov-12 06:44N 37°11' E 023°49'210.2
2017-Nov-12 06:30N 37°09' E 023°48'34311.0
2017-Nov-10 23:17N 40°49' E 018°10'29816.1
2017-Nov-10 04:44N 44°12' E 013°13'415.8
2017-Nov-10 04:29N 44°16' E 013°11'715.7
2017-Nov-10 04:00N 44°21' E 013°05'815.8
2017-Nov-10 03:30N 44°24' E 012°54'816.1
2017-Nov-10 03:00N 44°26' E 012°43'815.8
2017-Nov-10 02:30N 44°28' E 012°32'713.2
2017-Nov-10 01:56N 44°30' E 012°22'3 8.0
2017-Nov-10 01:30N 44°30' E 012°18'6 0.3
2017-Nov-09 05:20N 44°30' E 012°27'613.6
2017-Nov-09 04:54N 44°28' E 012°35'614.6
2017-Nov-09 04:30N 44°31' E 012°41'918.0
2017-Nov-09 04:00N 44°40' E 012°46'918.1
2017-Nov-09 03:30N 44°48' E 012°51'917.9
2017-Nov-09 03:00N 44°56' E 012°57'917.5
2017-Nov-09 02:30N 45°04' E 013°01'917.4
2017-Nov-09 02:00N 45°13' E 013°01'917.5
2017-Nov-09 01:30N 45°22' E 013°01'917.5
2017-Nov-09 01:00N 45°29' E 013°07'917.6
2017-Nov-09 00:30N 45°34' E 013°18'917.4
2017-Nov-09 00:00N 45°37' E 013°30'815.9
2017-Nov-08 23:30N 45°39' E 013°40'4 8.0
2017-Nov-08 23:00N 45°38' E 013°46'0 0.0
2017-Nov-08 22:26N 45°38' E 013°46'0 0.0
2017-Nov-08 21:59N 45°38' E 013°46'0 0.0
2017-Nov-08 21:26N 45°38' E 013°46'0 0.0
2017-Nov-08 20:56N 45°38' E 013°46'0 0.0
2017-Nov-08 20:29N 45°38' E 013°46'0 0.0
2017-Nov-08 19:59N 45°38' E 013°46'0 0.0
2017-Nov-08 19:26N 45°38' E 013°46'0 0.0
2017-Nov-08 18:59N 45°38' E 013°46'0 0.0
2017-Nov-08 18:29N 45°38' E 013°46'0 0.0
2017-Nov-08 17:56N 45°38' E 013°46'0 0.0
2017-Nov-08 17:29N 45°38' E 013°46'0 0.0
2017-Nov-08 16:53N 45°38' E 013°46'0 0.0
2017-Nov-08 16:29N 45°38' E 013°46'0 0.0
2017-Nov-08 15:59N 45°38' E 013°46'0 0.0
2017-Nov-08 15:26N 45°38' E 013°46'0 0.0
2017-Nov-08 14:59N 45°38' E 013°46'0 0.0
2017-Nov-08 14:29N 45°38' E 013°46'0 0.0
2017-Nov-08 13:56N 45°38' E 013°46'0 0.0
2017-Nov-08 13:26N 45°38' E 013°46'0 0.5
2017-Nov-08 13:00N 45°38' E 013°45'3 5.8
2017-Nov-08 12:30N 45°39' E 013°42'1 0.7
2017-Nov-08 11:45N 45°40' E 013°42'0 0.1
2017-Nov-08 11:30N 45°40' E 013°42'0 0.1
2017-Nov-08 11:00N 45°40' E 013°42'0 0.1
2017-Nov-08 10:18N 45°40' E 013°42'0 0.1
2017-Nov-08 10:00N 45°40' E 013°42'0 0.1
2017-Nov-08 09:30N 45°40' E 013°42'0 0.0
2017-Nov-08 08:54N 45°40' E 013°42'0 0.1
2017-Nov-08 07:57N 45°40' E 013°42'0 0.0
2017-Nov-08 07:30N 45°40' E 013°42'0 0.1
2017-Nov-08 06:48N 45°40' E 013°42'0 0.3
2017-Nov-08 06:30N 45°40' E 013°42'2 4.5
2017-Nov-08 06:00N 45°39' E 013°39'4 8.2
2017-Nov-08 05:30N 45°36' E 013°35'5 9.3
2017-Nov-08 05:00N 45°34' E 013°29'510.3
2017-Nov-08 04:30N 45°31' E 013°23'611.9
2017-Nov-08 04:00N 45°28' E 013°16'612.4
2017-Nov-08 03:30N 45°26' E 013°07'5 9.4
2017-Nov-08 03:00N 45°24' E 013°01'5 9.3
2017-Nov-08 02:30N 45°22' E 012°55'5 9.2
2017-Nov-08 02:00N 45°20' E 012°49'5 9.1
2017-Nov-08 01:30N 45°18' E 012°43'5 9.3
2017-Nov-08 01:00N 45°16' E 012°38'5 9.1
2017-Nov-08 00:30N 45°14' E 012°32'5 9.6
2017-Nov-08 00:00N 45°17' E 012°26'510.1
2017-Nov-07 23:30N 45°20' E 012°20'4 7.7
2017-Nov-07 23:01N 45°22' E 012°15'4 7.9
2017-Nov-07 22:30N 45°26' E 012°16'2 3.0
2017-Nov-07 22:00N 45°27' E 012°15'  

Dump ship's entire track history